Time;durP1;ratioP1;P1;durP2;ratioP2;P2;SDS_P1;SDS_P2;PMS_P1;PMS_P2;Temp;Humidity;BMP_temperature;BMP_pressure;BME280_temperature;BME280_humidity;BME280_pressure;Samples;Min_cycle;Max_cycle;Signal;HPM_P1;HPM_P2
2022/07/26 00:00:13;;;;;;;11.27;2.05;;;18.40;99.90;;;;;;4114019;28;20054;-82
2022/07/26 00:02:13;;;;;;;9.57;1.92;;;18.50;99.90;;;;;;4146460;28;20623;-82
2022/07/26 00:04:14;;;;;;;9.27;1.70;;;18.50;99.90;;;;;;4130829;28;20050;-82
2022/07/26 00:06:15;;;;;;;10.68;2.25;;;18.50;99.90;;;;;;4113889;28;20058;-82
2022/07/26 00:08:15;;;;;;;6.43;2.13;;;18.50;99.90;;;;;;4130843;28;20038;-82
2022/07/26 00:10:16;;;;;;;11.48;2.63;;;18.50;99.90;;;;;;4113799;28;20051;-82
2022/07/26 00:12:17;;;;;;;5.30;1.58;;;18.50;99.90;;;;;;4114031;28;20113;-82
2022/07/26 00:14:18;;;;;;;6.35;1.70;;;18.50;99.90;;;;;;4131090;28;20427;-83
2022/07/26 00:16:19;;;;;;;9.30;1.60;;;18.50;99.90;;;;;;4114089;28;20520;-83
2022/07/26 00:18:20;;;;;;;7.05;1.63;;;18.50;99.90;;;;;;4113534;28;20274;-83
2022/07/26 00:20:21;;;;;;;11.25;2.10;;;18.50;99.90;;;;;;4131795;28;20712;-83
2022/07/26 00:22:34;;;;;;;9.98;1.63;;;18.50;99.90;;;;;;4114115;28;20055;-83
2022/07/26 00:24:34;;;;;;;10.57;1.75;;;18.50;99.90;;;;;;4131334;28;20050;-83
2022/07/26 00:26:35;;;;;;;10.85;1.85;;;18.50;99.90;;;;;;4113721;28;20130;-83
2022/07/26 00:28:36;;;;;;;6.28;1.48;;;18.50;99.90;;;;;;4116336;28;20039;-83
2022/07/26 00:30:37;;;;;;;7.65;1.58;;;18.50;99.90;;;;;;4116727;28;20081;-82
2022/07/26 00:32:38;;;;;;;12.88;2.20;;;18.50;99.90;;;;;;4117010;28;20051;-82
2022/07/26 00:34:38;;;;;;;9.40;1.60;;;18.50;99.90;;;;;;4116897;28;20046;-83
2022/07/26 00:36:39;;;;;;;5.25;1.45;;;18.50;99.90;;;;;;4116582;28;20487;-83
2022/07/26 00:38:40;;;;;;;8.52;1.90;;;18.50;99.90;;;;;;4133893;28;20054;-83
2022/07/26 00:40:40;;;;;;;4.35;1.40;;;18.50;99.90;;;;;;4133967;28;20058;-83
2022/07/26 00:42:42;;;;;;;11.30;1.88;;;18.40;99.90;;;;;;4133791;28;20061;-83
2022/07/26 00:44:44;;;;;;;10.90;1.85;;;18.40;99.90;;;;;;4116701;28;20051;-83
2022/07/26 00:46:45;;;;;;;8.07;1.38;;;18.40;99.90;;;;;;4148990;28;20046;-82
2022/07/26 00:48:46;;;;;;;8.20;1.83;;;18.40;99.90;;;;;;4134281;28;20508;-83
2022/07/26 00:50:48;;;;;;;9.65;2.95;;;18.30;99.90;;;;;;4134084;28;20109;-83
2022/07/26 00:52:49;;;;;;;9.57;1.50;;;18.30;99.90;;;;;;4148393;28;20573;-83
2022/07/26 00:54:53;;;;;;;9.35;1.63;;;18.30;99.90;;;;;;4116268;28;20059;-82
2022/07/26 00:56:54;;;;;;;9.05;1.65;;;18.30;99.90;;;;;;4116633;28;20050;-82
2022/07/26 00:58:54;;;;;;;8.40;1.38;;;18.30;99.90;;;;;;4116637;28;20434;-83
2022/07/26 01:00:55;;;;;;;10.18;1.80;;;18.30;99.90;;;;;;4133728;28;20054;-82
2022/07/26 01:02:57;;;;;;;5.05;1.50;;;18.30;99.90;;;;;;4116539;28;20054;-83
2022/07/26 01:04:58;;;;;;;11.18;2.00;;;18.30;99.90;;;;;;4116397;28;20487;-82
2022/07/26 01:07:00;;;;;;;9.55;1.65;;;18.30;99.90;;;;;;4116534;28;20055;-83
2022/07/26 01:09:03;;;;;;;6.25;1.48;;;18.20;99.90;;;;;;4133493;28;20077;-83
2022/07/26 01:11:04;;;;;;;5.28;1.48;;;18.20;99.90;;;;;;4116456;28;20055;-82
2022/07/26 01:13:05;;;;;;;7.43;1.40;;;18.20;99.90;;;;;;4133377;28;20057;-82
2022/07/26 01:15:07;;;;;;;4.88;1.48;;;18.20;99.90;;;;;;4116214;28;20051;-82
2022/07/26 01:17:07;;;;;;;14.50;2.53;;;18.20;99.90;;;;;;4116276;28;20050;-83
2022/07/26 01:19:09;;;;;;;5.15;1.70;;;18.20;99.90;;;;;;4133567;28;20049;-83
2022/07/26 01:21:10;;;;;;;7.95;1.55;;;18.20;99.90;;;;;;4133180;28;20063;-83
2022/07/26 01:23:11;;;;;;;6.97;1.60;;;18.20;99.90;;;;;;4116278;28;20492;-83
2022/07/26 01:25:13;;;;;;;7.85;1.80;;;18.20;99.90;;;;;;4148491;28;20049;-82
2022/07/26 01:27:15;;;;;;;5.40;1.38;;;18.20;99.90;;;;;;4133369;28;20133;-83
2022/07/26 01:29:15;;;;;;;7.53;1.55;;;18.20;99.90;;;;;;4115451;28;20411;-83
2022/07/26 01:31:17;;;;;;;5.00;1.40;;;18.20;99.90;;;;;;4116120;28;20054;-83
2022/07/26 01:33:17;;;;;;;5.03;1.55;;;18.20;99.90;;;;;;4116238;28;20058;-83
2022/07/26 01:35:18;;;;;;;4.72;1.10;;;18.20;99.90;;;;;;4116144;28;20051;-83
2022/07/26 01:37:19;;;;;;;4.45;1.50;;;18.20;99.90;;;;;;4132900;28;20141;-83
2022/07/26 01:39:19;;;;;;;6.38;1.55;;;18.20;99.90;;;;;;4132242;28;20425;-83
2022/07/26 01:41:20;;;;;;;4.20;1.48;;;18.20;99.90;;;;;;4133002;28;20042;-83
2022/07/26 01:43:21;;;;;;;6.95;1.30;;;18.20;99.90;;;;;;4133121;28;20542;-82
2022/07/26 01:45:21;;;;;;;4.15;1.30;;;18.10;99.90;;;;;;4133376;28;20050;-83
2022/07/26 01:47:22;;;;;;;6.15;1.33;;;18.10;99.90;;;;;;4115861;28;20070;-82
2022/07/26 01:49:23;;;;;;;6.30;1.50;;;18.20;99.90;;;;;;4132866;28;20074;-83
2022/07/26 01:51:23;;;;;;;5.00;1.63;;;18.20;99.90;;;;;;4133194;28;20097;-82
2022/07/26 01:53:24;;;;;;;8.73;1.40;;;18.10;99.90;;;;;;4133238;28;20050;-82
2022/07/26 01:55:25;;;;;;;4.50;1.50;;;18.10;99.90;;;;;;4133118;28;20074;-82
2022/07/26 01:57:25;;;;;;;5.82;1.92;;;18.10;99.90;;;;;;4115727;28;20051;-82
2022/07/26 01:59:26;;;;;;;6.53;1.42;;;18.10;99.90;;;;;;4115346;28;20051;-82
2022/07/26 02:01:26;;;;;;;5.65;1.70;;;18.10;99.90;;;;;;4115324;28;20050;-83
2022/07/26 02:03:27;;;;;;;7.13;1.90;;;18.10;99.90;;;;;;4132894;28;20439;-82
2022/07/26 02:05:28;;;;;;;6.47;1.88;;;18.10;99.90;;;;;;4132891;28;20446;-83
2022/07/26 02:07:31;;;;;;;5.38;1.48;;;18.10;99.90;;;;;;4132772;28;20038;-82
2022/07/26 02:09:32;;;;;;;6.57;1.50;;;18.00;99.90;;;;;;4132764;28;20046;-82
2022/07/26 02:11:32;;;;;;;7.35;1.67;;;18.00;99.90;;;;;;4115537;28;20499;-82
2022/07/26 02:13:36;;;;;;;7.15;1.60;;;18.00;99.90;;;;;;4132929;28;20483;-82
2022/07/26 02:15:36;;;;;;;8.20;1.45;;;18.10;99.90;;;;;;4115567;28;20053;-82
2022/07/26 02:17:37;;;;;;;4.53;1.70;;;18.00;99.90;;;;;;4115282;28;20508;-83
2022/07/26 02:19:38;;;;;;;4.30;1.50;;;18.10;99.90;;;;;;4115945;28;20046;-82
2022/07/26 02:21:39;;;;;;;6.05;2.00;;;18.10;99.90;;;;;;4147646;28;20046;-82
2022/07/26 02:23:39;;;;;;;11.73;2.47;;;18.00;99.90;;;;;;4115361;28;20495;-81
2022/07/26 02:25:40;;;;;;;4.88;1.75;;;18.00;99.90;;;;;;4147084;28;20093;-81
2022/07/26 02:27:41;;;;;;;8.27;2.03;;;18.00;99.90;;;;;;4114923;28;20043;-81
2022/07/26 02:29:42;;;;;;;5.88;1.95;;;17.90;99.90;;;;;;4115288;28;20054;-82
2022/07/26 02:31:43;;;;;;;4.90;1.85;;;17.80;99.90;;;;;;4132415;28;20050;-82
2022/07/26 02:33:43;;;;;;;9.88;2.17;;;17.80;99.90;;;;;;4115288;28;20086;-81
2022/07/26 02:35:45;;;;;;;8.52;1.55;;;17.80;99.90;;;;;;4132517;28;20046;-82
2022/07/26 02:37:45;;;;;;;8.43;2.03;;;17.70;99.90;;;;;;4147439;28;20050;-81
2022/07/26 02:39:46;;;;;;;5.68;1.77;;;17.70;99.90;;;;;;4131909;28;20109;-82
2022/07/26 02:41:48;;;;;;;4.43;1.50;;;17.70;99.90;;;;;;4132524;28;20046;-81
2022/07/26 02:43:48;;;;;;;8.85;1.50;;;17.60;99.90;;;;;;4114912;28;20431;-83
2022/07/26 02:45:49;;;;;;;7.50;1.83;;;17.60;99.90;;;;;;4114947;28;20074;-82
2022/07/26 02:47:51;;;;;;;7.40;1.20;;;17.60;99.90;;;;;;4132338;28;20494;-83
2022/07/26 02:49:52;;;;;;;8.02;1.60;;;17.60;99.90;;;;;;4114317;28;20085;-82
2022/07/26 02:51:53;;;;;;;8.55;1.70;;;17.60;99.90;;;;;;4146187;28;20042;-81
2022/07/26 02:53:54;;;;;;;9.07;1.33;;;17.50;99.90;;;;;;4114841;28;20125;-82
2022/07/26 02:55:54;;;;;;;7.65;1.65;;;17.50;99.90;;;;;;4114516;28;20075;-82
2022/07/26 02:57:55;;;;;;;8.20;1.52;;;17.50;99.90;;;;;;4114719;28;20074;-82
2022/07/26 02:59:56;;;;;;;8.98;1.33;;;17.40;99.90;;;;;;4114758;28;20097;-82
2022/07/26 03:01:57;;;;;;;9.05;1.90;;;17.40;99.90;;;;;;4131799;28;20406;-82
2022/07/26 03:03:58;;;;;;;7.70;1.20;;;17.40;99.90;;;;;;4131711;28;20050;-82
2022/07/26 03:05:59;;;;;;;7.75;1.35;;;17.30;99.90;;;;;;4114615;28;20043;-82
2022/07/26 03:08:00;;;;;;;5.88;1.90;;;17.40;99.90;;;;;;4131873;28;20050;-82
2022/07/26 03:10:02;;;;;;;6.85;1.35;;;17.40;99.90;;;;;;4098616;29;20051;-82
2022/07/26 03:12:02;;;;;;;9.82;1.20;;;17.40;99.90;;;;;;4114163;28;20101;-82
2022/07/26 03:14:03;;;;;;;4.35;1.00;;;17.40;99.90;;;;;;4131518;28;20073;-81
2022/07/26 03:16:04;;;;;;;5.55;1.00;;;17.40;99.90;;;;;;4114655;28;20411;-82
2022/07/26 03:18:05;;;;;;;4.30;1.20;;;17.30;99.90;;;;;;4131689;28;20050;-82
2022/07/26 03:20:06;;;;;;;6.47;1.17;;;17.30;99.90;;;;;;4114047;28;20538;-81
2022/07/26 03:22:07;;;;;;;8.13;1.13;;;17.30;99.90;;;;;;4146746;28;20092;-82
2022/07/26 03:24:08;;;;;;;3.50;0.80;;;17.30;99.90;;;;;;4114438;28;20534;-82
2022/07/26 03:26:09;;;;;;;8.57;0.98;;;17.30;99.90;;;;;;4131551;28;20487;-81
2022/07/26 03:28:09;;;;;;;3.40;0.60;;;17.30;99.90;;;;;;4114295;28;20134;-82
2022/07/26 03:30:11;;;;;;;4.68;0.90;;;17.30;99.90;;;;;;4098068;29;20047;-82
2022/07/26 03:32:12;;;;;;;1.58;1.05;;;17.20;99.90;;;;;;4114249;28;20462;-82
2022/07/26 03:34:13;;;;;;;6.55;0.52;;;17.20;99.90;;;;;;4131472;28;20073;-82
2022/07/26 03:36:13;;;;;;;3.75;0.93;;;17.20;99.90;;;;;;4131575;28;20053;-81
2022/07/26 03:38:14;;;;;;;6.65;0.80;;;17.20;99.90;;;;;;4130590;28;20038;-82
2022/07/26 03:40:15;;;;;;;2.25;0.82;;;17.20;99.90;;;;;;4098319;29;20098;-82
2022/07/26 03:42:16;;;;;;;5.63;0.90;;;17.10;99.90;;;;;;4131556;28;20038;-82
2022/07/26 03:44:16;;;;;;;4.65;1.20;;;17.10;99.90;;;;;;4114193;28;20050;-82
2022/07/26 03:46:17;;;;;;;4.07;0.60;;;17.10;99.90;;;;;;4146159;28;20057;-82
2022/07/26 03:48:18;;;;;;;3.45;0.93;;;17.10;99.90;;;;;;4113527;28;20058;-81
2022/07/26 03:50:19;;;;;;;5.43;0.98;;;17.10;99.90;;;;;;4131173;28;20107;-82
2022/07/26 03:52:20;;;;;;;2.92;0.60;;;17.10;99.90;;;;;;4130505;28;20065;-81
2022/07/26 03:54:21;;;;;;;2.75;0.70;;;17.10;99.90;;;;;;4098112;29;20047;-82
2022/07/26 03:56:27;;;;;;;3.05;0.90;;;17.10;99.90;;;;;;4131158;28;20043;-82
2022/07/26 03:58:29;;;;;;;2.92;1.10;;;17.10;99.90;;;;;;4098040;29;20083;-82
2022/07/26 04:00:30;;;;;;;2.92;0.55;;;17.10;99.90;;;;;;4113771;28;20432;-81
2022/07/26 04:02:31;;;;;;;6.97;1.38;;;17.10;99.90;;;;;;4133120;28;20169;-81
2022/07/26 04:04:31;;;;;;;5.43;0.90;;;17.10;99.90;;;;;;4117161;28;20054;-82
2022/07/26 04:06:32;;;;;;;8.05;0.70;;;17.10;99.90;;;;;;4117509;28;20078;-82
2022/07/26 04:08:34;;;;;;;5.07;0.60;;;17.10;99.90;;;;;;4149692;28;20042;-82
2022/07/26 04:10:34;;;;;;;4.78;0.65;;;17.10;99.90;;;;;;4117331;28;20505;-82
2022/07/26 04:12:35;;;;;;;5.20;0.68;;;17.10;99.90;;;;;;4117448;28;20050;-82
2022/07/26 04:14:35;;;;;;;3.22;0.68;;;17.10;99.90;;;;;;4149074;28;20058;-82
2022/07/26 04:16:36;;;;;;;3.28;0.60;;;17.10;99.90;;;;;;4117409;28;20070;-82
2022/07/26 04:18:37;;;;;;;5.88;0.60;;;17.10;99.90;;;;;;4134127;28;20042;-82
2022/07/26 04:20:38;;;;;;;6.30;0.52;;;17.10;99.90;;;;;;4117067;28;20643;-82
2022/07/26 04:22:40;;;;;;;3.83;0.95;;;17.10;99.90;;;;;;4134831;28;20156;-82
2022/07/26 04:24:40;;;;;;;7.75;1.35;;;17.10;99.90;;;;;;4134495;28;20053;-82
2022/07/26 04:26:41;;;;;;;4.18;0.60;;;17.10;99.90;;;;;;4116931;28;20043;-82
2022/07/26 04:28:43;;;;;;;4.85;0.45;;;17.10;99.90;;;;;;4134548;28;20097;-82
2022/07/26 04:30:44;;;;;;;8.32;1.48;;;17.00;99.90;;;;;;4117279;28;20086;-82
2022/07/26 04:32:45;;;;;;;8.85;1.90;;;17.00;99.90;;;;;;4134363;28;20038;-82
2022/07/26 04:34:46;;;;;;;3.90;0.80;;;16.90;99.90;;;;;;4117124;28;20082;-82
2022/07/26 04:36:46;;;;;;;6.25;1.38;;;16.90;99.90;;;;;;4133481;28;20045;-82
2022/07/26 04:38:47;;;;;;;4.07;0.40;;;16.90;99.90;;;;;;4134300;28;20060;-82
2022/07/26 04:40:49;;;;;;;3.55;0.60;;;16.90;99.90;;;;;;4134073;28;20427;-82
2022/07/26 04:42:51;;;;;;;5.85;0.50;;;16.90;99.90;;;;;;4117176;28;20050;-82
2022/07/26 04:44:51;;;;;;;3.90;0.80;;;16.90;99.90;;;;;;4133770;28;20042;-82
2022/07/26 04:46:52;;;;;;;6.00;0.50;;;16.80;99.90;;;;;;4133607;28;20042;-82
2022/07/26 04:48:53;;;;;;;1.10;0.20;;;16.90;99.90;;;;;;4116398;28;20523;-82
2022/07/26 04:50:54;;;;;;;2.97;0.50;;;16.90;99.90;;;;;;4115776;28;20073;-82
2022/07/26 04:52:54;;;;;;;5.72;0.57;;;16.90;99.90;;;;;;4116298;28;20051;-82
2022/07/26 04:54:55;;;;;;;5.53;0.40;;;16.90;99.90;;;;;;4116358;28;20053;-82
2022/07/26 04:56:56;;;;;;;5.00;1.10;;;17.00;99.90;;;;;;4134019;28;20079;-82
2022/07/26 04:58:56;;;;;;;3.85;0.50;;;17.00;99.90;;;;;;4116513;28;20051;-82
2022/07/26 05:00:58;;;;;;;5.40;1.05;;;17.00;99.90;;;;;;4132464;28;20406;-82
2022/07/26 05:03:00;;;;;;;2.75;0.60;;;17.00;99.90;;;;;;4134021;28;20054;-82
2022/07/26 05:05:01;;;;;;;3.80;0.40;;;17.00;99.90;;;;;;4116111;28;20047;-81
2022/07/26 05:07:02;;;;;;;6.45;0.63;;;17.10;99.90;;;;;;4148574;28;20056;-81
2022/07/26 05:09:03;;;;;;;4.00;0.52;;;17.10;99.90;;;;;;4116907;28;20058;-82
2022/07/26 05:11:03;;;;;;;1.65;0.20;;;17.10;99.90;;;;;;4116822;28;20054;-82
2022/07/26 05:13:06;;;;;;;4.18;0.40;;;17.10;99.90;;;;;;4133722;28;20046;-82
2022/07/26 05:15:08;;;;;;;1.25;0.32;;;17.10;99.90;;;;;;4148305;28;20061;-82
2022/07/26 05:17:09;;;;;;;1.42;0.30;;;17.10;99.90;;;;;;4134150;28;20517;-82
2022/07/26 05:19:09;;;;;;;3.25;0.82;;;17.10;99.90;;;;;;4149297;28;20054;-82
2022/07/26 05:21:10;;;;;;;2.50;0.50;;;17.10;99.90;;;;;;4116161;28;20101;-82
2022/07/26 05:23:11;;;;;;;4.30;0.40;;;17.00;99.90;;;;;;4117054;28;20047;-81
2022/07/26 05:25:12;;;;;;;7.68;0.65;;;17.00;99.90;;;;;;4148577;28;20592;-82
2022/07/26 05:27:13;;;;;;;3.58;0.82;;;17.00;99.90;;;;;;4116240;28;20046;-82
2022/07/26 05:29:13;;;;;;;4.00;0.40;;;17.00;99.90;;;;;;4148847;28;20053;-82
2022/07/26 05:31:14;;;;;;;1.17;0.25;;;17.00;99.90;;;;;;4116273;28;20054;-82
2022/07/26 05:33:15;;;;;;;3.90;0.52;;;17.00;99.90;;;;;;4116024;28;20050;-81
2022/07/26 05:35:16;;;;;;;5.63;1.35;;;16.90;99.90;;;;;;4132849;28;20053;-82
2022/07/26 05:37:16;;;;;;;6.88;0.63;;;16.90;99.90;;;;;;4116035;28;20046;-82
2022/07/26 05:39:17;;;;;;;5.10;0.98;;;16.80;99.90;;;;;;4133481;28;20411;-81
2022/07/26 05:41:18;;;;;;;5.35;0.40;;;16.80;99.90;;;;;;4133308;28;20054;-82
2022/07/26 05:43:18;;;;;;;5.03;0.60;;;16.70;99.90;;;;;;4115656;28;20393;-82
2022/07/26 05:45:19;;;;;;;2.50;1.08;;;16.70;99.90;;;;;;4132868;28;20046;-82
2022/07/26 05:47:20;;;;;;;5.18;1.00;;;16.70;99.90;;;;;;4115795;28;20479;-82
2022/07/26 05:49:20;;;;;;;3.05;0.88;;;16.70;99.90;;;;;;4132721;28;20136;-82
2022/07/26 05:51:21;;;;;;;3.92;0.70;;;16.70;99.90;;;;;;4115771;28;20050;-82
2022/07/26 05:53:22;;;;;;;3.55;0.50;;;16.70;99.90;;;;;;4115831;28;20051;-82
2022/07/26 05:55:22;;;;;;;8.13;0.82;;;16.80;99.90;;;;;;4147793;28;20046;-82
2022/07/26 05:57:24;;;;;;;3.80;0.80;;;16.80;99.90;;;;;;4115867;28;20047;-82
2022/07/26 05:59:25;;;;;;;4.85;1.13;;;16.80;99.90;;;;;;4115680;28;20058;-82
2022/07/26 06:01:31;;;;;;;4.82;1.30;;;16.90;99.90;;;;;;4115999;28;20184;-82
2022/07/26 06:03:32;;;;;;;3.95;0.70;;;17.00;99.90;;;;;;4147209;28;20058;-81
2022/07/26 06:05:32;;;;;;;4.70;1.10;;;17.00;99.90;;;;;;4132722;28;20435;-82
2022/07/26 06:07:33;;;;;;;4.68;1.00;;;17.10;99.90;;;;;;4132505;28;20104;-82
2022/07/26 06:09:34;;;;;;;4.47;0.45;;;17.10;99.90;;;;;;4132759;28;20050;-82
2022/07/26 06:11:34;;;;;;;4.95;0.68;;;17.20;99.90;;;;;;4132601;28;20082;-82
2022/07/26 06:13:35;;;;;;;5.07;1.38;;;17.20;99.90;;;;;;4099574;29;20500;-82
2022/07/26 06:15:37;;;;;;;3.08;0.52;;;17.20;99.90;;;;;;4133364;28;20050;-82
2022/07/26 06:17:40;;;;;;;5.85;0.60;;;17.30;99.90;;;;;;4114540;28;20058;-82
2022/07/26 06:19:40;;;;;;;7.93;0.70;;;17.30;99.90;;;;;;4147534;28;20100;-82
2022/07/26 06:21:41;;;;;;;4.05;0.85;;;17.40;99.90;;;;;;4132883;28;20042;-82
2022/07/26 06:23:42;;;;;;;1.95;0.20;;;17.40;99.90;;;;;;4132429;28;20042;-82
2022/07/26 06:25:42;;;;;;;3.50;0.52;;;17.50;99.90;;;;;;4132410;28;20077;-82
2022/07/26 06:27:43;;;;;;;3.70;0.75;;;17.50;99.90;;;;;;4131933;28;20046;-82
2022/07/26 06:29:47;;;;;;;2.25;0.40;;;17.50;99.90;;;;;;4099152;29;20051;-82
2022/07/26 06:31:48;;;;;;;5.28;0.50;;;17.50;99.90;;;;;;4132182;28;20042;-83
2022/07/26 06:33:49;;;;;;;5.55;0.52;;;17.40;99.90;;;;;;4114988;28;20046;-82
2022/07/26 06:35:50;;;;;;;2.95;0.50;;;17.50;99.90;;;;;;4115051;28;20499;-82
2022/07/26 06:37:51;;;;;;;3.67;0.40;;;17.40;99.90;;;;;;4114508;28;20046;-81
2022/07/26 06:39:52;;;;;;;3.85;0.70;;;17.30;99.90;;;;;;4131721;28;20050;-82
2022/07/26 06:41:53;;;;;;;4.45;1.40;;;17.30;99.90;;;;;;4132245;28;20486;-83
2022/07/26 06:43:53;;;;;;;2.83;0.90;;;17.30;99.90;;;;;;4114938;28;20118;-82
2022/07/26 06:45:54;;;;;;;8.10;1.00;;;17.30;99.90;;;;;;4114310;28;20126;-83
2022/07/26 06:47:55;;;;;;;5.32;1.05;;;17.30;99.90;;;;;;4131955;28;20047;-82
2022/07/26 06:49:56;;;;;;;4.55;0.50;;;17.30;99.90;;;;;;4114905;28;20051;-82
2022/07/26 06:51:57;;;;;;;3.40;0.73;;;17.40;99.90;;;;;;4114818;28;20042;-82
2022/07/26 06:53:57;;;;;;;1.88;0.30;;;17.50;99.90;;;;;;4132460;28;20121;-82
2022/07/26 06:55:58;;;;;;;4.10;0.40;;;17.50;99.90;;;;;;4114720;28;20054;-82
2022/07/26 06:57:59;;;;;;;5.40;0.38;;;17.70;99.90;;;;;;4132404;28;20046;-82
2022/07/26 06:59:59;;;;;;;1.80;0.30;;;17.70;99.90;;;;;;4114649;28;20070;-82
2022/07/26 07:02:01;;;;;;;3.13;0.47;;;17.80;99.90;;;;;;4132062;28;20049;-82
2022/07/26 07:04:02;;;;;;;1.60;0.40;;;17.80;99.90;;;;;;4114710;28;20047;-83
2022/07/26 07:06:03;;;;;;;3.40;0.30;;;17.80;99.90;;;;;;4113791;28;20050;-83
2022/07/26 07:08:04;;;;;;;5.07;0.40;;;17.80;99.90;;;;;;4131152;28;20046;-82
2022/07/26 07:10:05;;;;;;;1.42;0.32;;;17.80;99.90;;;;;;4131597;28;20108;-83
2022/07/26 07:12:06;;;;;;;8.90;1.00;;;17.80;99.90;;;;;;4114216;28;20059;-82
2022/07/26 07:14:07;;;;;;;4.22;0.70;;;17.80;99.90;;;;;;4131140;28;20531;-83
2022/07/26 07:16:08;;;;;;;3.92;0.43;;;17.80;99.90;;;;;;4113983;28;20109;-83
2022/07/26 07:18:09;;;;;;;2.00;0.70;;;17.80;99.90;;;;;;4113441;28;20097;-83
2022/07/26 07:20:10;;;;;;;2.25;0.43;;;17.90;99.90;;;;;;4131729;28;20061;-83
2022/07/26 07:22:11;;;;;;;4.63;0.50;;;18.00;99.90;;;;;;4131817;28;20046;-82
2022/07/26 07:24:12;;;;;;;1.35;0.30;;;18.10;99.90;;;;;;4114567;28;20121;-82
2022/07/26 07:26:12;;;;;;;5.65;0.85;;;18.30;99.90;;;;;;4114393;28;20057;-83
2022/07/26 07:28:13;;;;;;;4.10;0.63;;;18.50;99.90;;;;;;4146088;28;20050;-82
2022/07/26 07:30:15;;;;;;;5.28;0.50;;;18.60;99.90;;;;;;4131902;28;20045;-82
2022/07/26 07:32:16;;;;;;;4.20;0.60;;;18.70;99.90;;;;;;4131373;28;20407;-82
2022/07/26 07:34:21;;;;;;;6.18;0.55;;;18.70;99.90;;;;;;4114121;28;20050;-83
2022/07/26 07:36:22;;;;;;;5.78;1.08;;;18.70;99.90;;;;;;4131332;28;20054;-82
2022/07/26 07:38:22;;;;;;;6.68;1.20;;;18.60;99.90;;;;;;4113332;28;20089;-82
2022/07/26 07:40:23;;;;;;;4.50;0.60;;;18.60;99.90;;;;;;4113412;28;20116;-82
2022/07/26 07:42:24;;;;;;;6.20;0.70;;;18.50;99.90;;;;;;4114237;28;20407;-82
2022/07/26 07:44:24;;;;;;;4.70;0.40;;;18.50;99.90;;;;;;4114367;28;20420;-82
2022/07/26 07:46:25;;;;;;;7.97;1.83;;;18.40;99.90;;;;;;4131434;28;20100;-82
2022/07/26 07:48:26;;;;;;;5.85;0.80;;;18.30;99.90;;;;;;4131607;28;20132;-82
2022/07/26 07:50:27;;;;;;;4.10;0.70;;;18.30;99.90;;;;;;4131022;28;20042;-82
2022/07/26 07:52:27;;;;;;;4.40;0.43;;;18.20;99.90;;;;;;4131077;28;20046;-82
2022/07/26 07:54:28;;;;;;;4.90;1.05;;;18.20;99.90;;;;;;4114142;28;20137;-83
2022/07/26 07:56:29;;;;;;;4.35;0.60;;;18.10;99.90;;;;;;4131190;28;20120;-82
2022/07/26 07:58:29;;;;;;;2.33;0.40;;;18.20;99.90;;;;;;4131411;28;20403;-82
2022/07/26 08:00:30;;;;;;;5.38;0.60;;;18.20;99.90;;;;;;4131229;28;20058;-82
2022/07/26 08:02:31;;;;;;;1.80;0.40;;;18.20;99.90;;;;;;4114170;28;20047;-83
2022/07/26 08:04:31;;;;;;;3.60;0.73;;;18.20;99.90;;;;;;4113920;28;20090;-82
2022/07/26 08:06:32;;;;;;;4.40;0.50;;;18.30;99.90;;;;;;4131373;28;20074;-82
2022/07/26 08:08:34;;;;;;;4.82;1.25;;;18.30;99.90;;;;;;4113555;28;20046;-82
2022/07/26 08:10:35;;;;;;;3.88;0.95;;;18.30;99.90;;;;;;4131244;28;20047;-82
2022/07/26 08:12:36;;;;;;;4.03;0.60;;;18.40;99.90;;;;;;4114131;28;20070;-82
2022/07/26 08:14:37;;;;;;;6.22;0.52;;;18.30;99.90;;;;;;4114181;28;20556;-82
2022/07/26 08:16:37;;;;;;;2.92;0.50;;;18.40;99.90;;;;;;4131349;28;20042;-83
2022/07/26 08:18:38;;;;;;;3.38;0.52;;;18.50;99.90;;;;;;4114034;28;20125;-82
2022/07/26 08:20:39;;;;;;;4.97;0.70;;;18.70;99.90;;;;;;4131156;28;20517;-82
2022/07/26 08:22:39;;;;;;;1.98;0.60;;;19.10;99.90;;;;;;4113797;28;20047;-82
2022/07/26 08:24:40;;;;;;;6.55;0.60;;;19.50;99.90;;;;;;4113985;28;20042;-83
2022/07/26 08:26:41;;;;;;;4.40;1.30;;;19.70;99.90;;;;;;4113664;28;20039;-82
2022/07/26 08:28:41;;;;;;;6.50;0.60;;;19.70;99.50;;;;;;4131339;28;20042;-83
2022/07/26 08:30:42;;;;;;;8.13;1.02;;;19.80;99.30;;;;;;4131142;28;20050;-83
2022/07/26 08:32:43;;;;;;;5.03;0.70;;;19.90;99.50;;;;;;4114138;28;20595;-83
2022/07/26 08:34:43;;;;;;;4.88;1.20;;;20.00;99.50;;;;;;4131373;28;20042;-83
2022/07/26 08:36:44;;;;;;;3.30;0.75;;;20.00;99.70;;;;;;4114087;28;20521;-83
2022/07/26 08:38:45;;;;;;;4.13;0.70;;;20.00;99.40;;;;;;4146260;28;20065;-83
2022/07/26 08:40:47;;;;;;;3.00;0.55;;;19.90;99.40;;;;;;4115627;28;20082;-83
2022/07/26 08:42:52;;;;;;;3.60;0.57;;;19.70;99.60;;;;;;4114152;28;20646;-83
2022/07/26 08:44:53;;;;;;;6.63;0.85;;;19.50;99.90;;;;;;4115813;28;20526;-82
2022/07/26 08:46:53;;;;;;;6.30;0.75;;;19.40;99.90;;;;;;4115014;28;20043;-83
2022/07/26 08:48:55;;;;;;;5.05;0.85;;;19.40;99.90;;;;;;4117649;28;20042;-82
2022/07/26 08:50:57;;;;;;;3.13;0.65;;;19.40;99.90;;;;;;4121218;28;20122;-82
2022/07/26 08:53:00;;;;;;;5.68;0.55;;;19.40;99.90;;;;;;4117609;28;20507;-83
2022/07/26 08:55:01;;;;;;;10.20;1.70;;;19.40;99.90;;;;;;4118796;28;20043;-82
2022/07/26 08:57:02;;;;;;;2.95;0.90;;;19.40;99.90;;;;;;4119785;28;20117;-83
2022/07/26 08:59:13;;;;;;;6.68;1.67;;;19.30;99.90;;;;;;4100897;29;20496;-83
2022/07/26 09:01:13;;;;;;;5.30;1.40;;;19.20;99.90;;;;;;4118359;28;20047;-82
2022/07/26 09:03:24;;;;;;;6.32;0.93;;;19.00;99.90;;;;;;4116315;28;20050;-83
2022/07/26 09:05:33;;;;;;;5.68;1.17;;;19.00;99.90;;;;;;4148767;28;20125;-81
2022/07/26 09:07:34;;;;;;;10.10;1.10;;;18.90;99.90;;;;;;4117973;28;20039;-83
2022/07/26 09:09:38;;;;;;;4.75;0.95;;;18.90;99.90;;;;;;4148962;28;20064;-83
2022/07/26 09:11:39;;;;;;;6.57;1.33;;;18.90;99.90;;;;;;4117711;28;20054;-82
2022/07/26 09:13:59;;;;;;;7.28;1.15;;;19.00;99.90;;;;;;4117846;28;20170;-82
2022/07/26 09:16:08;;;;;;;12.32;1.55;;;19.00;99.70;;;;;;4149184;28;20056;-82
2022/07/26 09:18:25;;;;;;;6.57;1.30;;;19.10;99.90;;;;;;4116659;28;20058;-83
2022/07/26 09:20:28;;;;;;;9.70;0.95;;;19.20;99.40;;;;;;4117337;28;20038;-82
2022/07/26 09:22:29;;;;;;;6.25;1.05;;;19.20;99.40;;;;;;4117701;28;20051;-82
2022/07/26 09:24:36;;;;;;;8.82;1.70;;;19.20;98.90;;;;;;4100642;29;20043;-82
2022/07/26 09:26:37;;;;;;;6.82;1.15;;;19.20;98.80;;;;;;4102104;28;20046;-83
2022/07/26 09:28:38;;;;;;;7.07;0.70;;;19.30;98.90;;;;;;4102009;28;20043;-83
2022/07/26 09:30:51;;;;;;;8.48;1.27;;;19.30;98.60;;;;;;4132505;28;20050;-83
2022/07/26 09:33:06;;;;;;;8.13;1.33;;;19.30;98.50;;;;;;4132651;28;20600;-83
2022/07/26 09:35:15;;;;;;;8.95;2.05;;;19.30;98.40;;;;;;4115240;28;20109;-83
2022/07/26 09:37:16;;;;;;;14.95;1.83;;;19.30;98.40;;;;;;4148731;28;20057;-83
2022/07/26 09:39:17;;;;;;;11.55;2.08;;;19.30;98.50;;;;;;4127704;28;20050;-83
2022/07/26 09:41:28;;;;;;;9.90;1.40;;;19.30;98.40;;;;;;4133447;28;20046;-83
2022/07/26 09:43:36;;;;;;;5.43;1.23;;;19.30;98.40;;;;;;4149503;28;20151;-83
2022/07/26 09:45:37;;;;;;;11.40;2.13;;;19.30;98.10;;;;;;4132737;28;20491;-82
2022/07/26 09:47:38;;;;;;;8.73;1.20;;;19.30;98.00;;;;;;4118433;28;20042;-83
2022/07/26 09:49:41;;;;;;;9.23;2.15;;;19.40;98.10;;;;;;4085226;29;20056;-83
2022/07/26 09:51:44;;;;;;;9.45;2.10;;;19.50;97.80;;;;;;4117972;28;20097;-82
2022/07/26 09:53:46;;;;;;;10.85;1.38;;;19.60;97.60;;;;;;4148195;28;20089;-82
2022/07/26 09:55:50;;;;;;;7.20;1.92;;;19.70;97.40;;;;;;4133709;28;20046;-83
2022/07/26 09:57:51;;;;;;;13.20;1.73;;;19.70;97.10;;;;;;4134462;28;20060;-83
2022/07/26 09:59:52;;;;;;;11.18;1.90;;;19.70;96.70;;;;;;4133337;28;20042;-82
2022/07/26 10:01:55;;;;;;;7.68;1.42;;;19.70;96.50;;;;;;4132632;28;20065;-83
2022/07/26 10:03:55;;;;;;;11.00;1.35;;;19.70;96.30;;;;;;4148853;28;20049;-83
2022/07/26 10:05:58;;;;;;;6.70;1.10;;;19.70;96.10;;;;;;4134016;28;20130;-82
2022/07/26 10:07:59;;;;;;;9.52;1.25;;;19.80;95.90;;;;;;4116446;28;20042;-82
2022/07/26 10:10:10;;;;;;;5.80;1.35;;;19.90;95.80;;;;;;4133773;28;20042;-82
2022/07/26 10:12:14;;;;;;;6.85;1.23;;;20.00;95.20;;;;;;4148573;28;20050;-82
2022/07/26 10:14:45;;;;;;;7.65;1.67;;;20.10;95.10;;;;;;4148874;28;20085;-82
2022/07/26 10:16:46;;;;;;;8.30;1.20;;;20.20;94.00;;;;;;4121146;28;20054;-83
2022/07/26 10:18:50;;;;;;;7.70;1.08;;;20.30;94.50;;;;;;4133495;28;20475;-82
2022/07/26 10:20:51;;;;;;;4.85;1.13;;;20.40;94.20;;;;;;4148856;28;20185;-83
2022/07/26 10:22:52;;;;;;;4.63;0.93;;;20.40;94.00;;;;;;4148465;28;20046;-83
2022/07/26 10:24:53;;;;;;;10.30;1.98;;;20.40;93.80;;;;;;4134007;28;20038;-83
2022/07/26 10:26:54;;;;;;;9.18;1.15;;;20.50;93.30;;;;;;4164748;28;20115;-82
2022/07/26 10:29:15;;;;;;;5.95;1.40;;;20.60;93.10;;;;;;4133414;28;20046;-82
2022/07/26 10:31:19;;;;;;;8.55;1.00;;;20.80;93.10;;;;;;4133396;28;20050;-83